<?xml version="1.0" encoding="UTF-8" standalone="no" ?>
<gpx xmlns="http://www.topografix.com/GPX/1/1" xmlns:xsi="http://www.w3.org/2001/XMLSchema-instance" xsi:schemaLocation="http://www.topografix.com/GPX/1/1 http://www.topografix.com/GPX/1/1/gpx.xsd" version="1.1" creator="VisuGPX - https://www.visugpx.com">
  <metadata>
    <name>Argentina</name>
    <desc><![CDATA[Downloaded from eMap Software Version 2.75]]></desc>
  </metadata>
  <trk>
    <name><![CDATA[Argentina_116]]></name>
    <extensions>
      <line xmlns="http://www.topografix.com/GPX/gpx_style/0/2">
        <color>ff0000</color>
        <opacity>0.78</opacity>
        <width>0.6000</width>
      </line>
    </extensions>
    <trkseg>
      <trkpt lat="43.61731" lon="6.94765">
        <ele>100.595093</ele>
        <time>2009-08-22T09:46:50Z</time>
      </trkpt>
      <trkpt lat="43.61746" lon="6.94754">
        <ele>100.595093</ele>
        <time>2009-08-22T09:47:03Z</time>
      </trkpt>
      <trkpt lat="43.61697" lon="6.94757">
        <ele>89.539917</ele>
        <time>2009-08-22T09:47:30Z</time>
      </trkpt>
      <trkpt lat="43.61701" lon="6.94752">
        <ele>103.959717</ele>
        <time>2009-08-22T09:48:19Z</time>
      </trkpt>
      <trkpt lat="43.61688" lon="6.94716">
        <ele>101.075684</ele>
        <time>2009-08-22T09:48:47Z</time>
      </trkpt>
      <trkpt lat="43.61677" lon="6.94675">
        <ele>101.556396</ele>
        <time>2009-08-22T09:49:55Z</time>
      </trkpt>
      <trkpt lat="43.61669" lon="6.94606">
        <ele>101.556396</ele>
        <time>2009-08-22T09:50:33Z</time>
      </trkpt>
      <trkpt lat="43.61669" lon="6.9454">
        <ele>97.711182</ele>
        <time>2009-08-22T09:51:05Z</time>
      </trkpt>
      <trkpt lat="43.61667" lon="6.94503">
        <ele>95.307739</ele>
        <time>2009-08-22T09:51:33Z</time>
      </trkpt>
      <trkpt lat="43.6166" lon="6.94488">
        <ele>90.02063</ele>
        <time>2009-08-22T09:51:43Z</time>
      </trkpt>
      <trkpt lat="43.61647" lon="6.94486">
        <ele>86.175293</ele>
        <time>2009-08-22T09:51:57Z</time>
      </trkpt>
      <trkpt lat="43.6163" lon="6.94501">
        <ele>79.926636</ele>
        <time>2009-08-22T09:52:22Z</time>
      </trkpt>
      <trkpt lat="43.61628" lon="6.94497">
        <ele>78.004028</ele>
        <time>2009-08-22T09:52:28Z</time>
      </trkpt>
      <trkpt lat="43.61626" lon="6.9449">
        <ele>76.562134</ele>
        <time>2009-08-22T09:52:46Z</time>
      </trkpt>
      <trkpt lat="43.61628" lon="6.94499">
        <ele>76.081421</ele>
        <time>2009-08-22T09:52:52Z</time>
      </trkpt>
      <trkpt lat="43.61617" lon="6.94523">
        <ele>71.274902</ele>
        <time>2009-08-22T09:53:12Z</time>
      </trkpt>
      <trkpt lat="43.61611" lon="6.94514">
        <ele>68.871582</ele>
        <time>2009-08-22T09:53:28Z</time>
      </trkpt>
      <trkpt lat="43.61611" lon="6.94503">
        <ele>67.910278</ele>
        <time>2009-08-22T09:53:46Z</time>
      </trkpt>
      <trkpt lat="43.6162" lon="6.94551">
        <ele>68.390869</ele>
        <time>2009-08-22T09:54:15Z</time>
      </trkpt>
      <trkpt lat="43.61617" lon="6.94553">
        <ele>67.910278</ele>
        <time>2009-08-22T09:54:17Z</time>
      </trkpt>
      <trkpt lat="43.616" lon="6.94548">
        <ele>64.545654</ele>
        <time>2009-08-22T09:54:32Z</time>
      </trkpt>
      <trkpt lat="43.61587" lon="6.94544">
        <ele>64.065063</ele>
        <time>2009-08-22T09:55:07Z</time>
      </trkpt>
    </trkseg>
  </trk>
</gpx>